Time;durP1;ratioP1;P1;durP2;ratioP2;P2;SDS_P1;SDS_P2;PMS_P1;PMS_P2;Temp;Humidity;BMP_temperature;BMP_pressure;BME280_temperature;BME280_humidity;BME280_pressure;Samples;Min_cycle;Max_cycle;Signal;HPM_P1;HPM_P2
2022/04/17 00:00:25;;;;;;;8.85;4.18;;;;;;;;;;5068072;28;20404;-76
2022/04/17 00:02:51;;;;;;;7.30;4.50;;;;;;;;;;5069752;28;20071;-76
2022/04/17 00:05:17;;;;;;;9.38;4.78;;;;;;;;;;5070725;28;20035;-76
2022/04/17 00:07:44;;;;;;;6.60;4.43;;;;;;;;;;5068315;28;20047;-76
2022/04/17 00:10:10;;;;;;;8.10;4.70;;;;;;;;;;5073009;28;20040;-77
2022/04/17 00:12:36;;;;;;;6.93;4.38;;;;;;;;;;5072331;28;20590;-75
2022/04/17 00:15:03;;;;;;;7.75;4.47;;;;;;;;;;5072163;28;20044;-75
2022/04/17 00:17:29;;;;;;;7.75;4.55;;;;;;;;;;5055480;28;20043;-74
2022/04/17 00:19:56;;;;;;;9.43;4.70;;;;;;;;;;5071833;28;20115;-80
2022/04/17 00:22:23;;;;;;;12.52;4.80;;;;;;;;;;5072374;28;20044;-76
2022/04/17 00:24:49;;;;;;;8.98;4.80;;;;;;;;;;5072737;28;20045;-73
2022/04/17 00:27:15;;;;;;;9.45;4.63;;;;;;;;;;5070905;28;20043;-75
2022/04/17 00:29:44;;;;;;;9.23;4.70;;;;;;;;;;5071323;28;20072;-77
2022/04/17 00:32:10;;;;;;;8.30;4.65;;;;;;;;;;5054984;28;20091;-75
2022/04/17 00:34:37;;;;;;;8.55;5.03;;;;;;;;;;5068802;28;20052;-75
2022/04/17 00:37:03;;;;;;;8.65;5.00;;;;;;;;;;5073054;28;20523;-74
2022/04/17 00:39:30;;;;;;;10.95;5.28;;;;;;;;;;5072050;28;20114;-76
2022/04/17 00:41:56;;;;;;;7.80;4.93;;;;;;;;;;5072100;28;20072;-73
2022/04/17 00:44:22;;;;;;;8.20;4.88;;;;;;;;;;5070756;28;20044;-74
2022/04/17 00:46:49;;;;;;;9.27;5.40;;;;;;;;;;5054234;28;20048;-77
2022/04/17 00:49:15;;;;;;;9.23;5.15;;;;;;;;;;5071018;28;20040;-74
2022/04/17 00:51:43;;;;;;;8.05;5.15;;;;;;;;;;5070515;28;20186;-74
2022/04/17 00:54:12;;;;;;;8.15;4.95;;;;;;;;;;5070405;28;20048;-74
2022/04/17 00:56:38;;;;;;;7.55;4.93;;;;;;;;;;5070889;28;20098;-77
2022/04/17 00:59:06;;;;;;;12.68;5.38;;;;;;;;;;5071013;28;20040;-80
2022/04/17 01:01:33;;;;;;;9.48;5.10;;;;;;;;;;5070465;28;20045;-77
2022/04/17 01:04:03;;;;;;;10.07;5.15;;;;;;;;;;5070542;28;20495;-76
2022/04/17 01:06:29;;;;;;;10.32;5.45;;;;;;;;;;5071517;28;20371;-80
2022/04/17 01:08:55;;;;;;;8.93;5.20;;;;;;;;;;5071491;28;20040;-81
2022/04/17 01:11:22;;;;;;;9.70;5.63;;;;;;;;;;5070268;28;20043;-76
2022/04/17 01:13:48;;;;;;;9.27;5.15;;;;;;;;;;5070339;28;20047;-76
2022/04/17 01:16:17;;;;;;;8.15;4.80;;;;;;;;;;5069967;28;20067;-80
2022/04/17 01:19:01;;;;;;;9.43;5.47;;;;;;;;;;5069822;28;20070;-79
2022/04/17 01:21:29;;;;;;;10.98;5.82;;;;;;;;;;5052213;28;20040;-78
2022/04/17 01:26:57;;;;;;;10.70;5.70;;;;;;;;;;5070243;28;20040;-74
2022/04/17 01:29:23;;;;;;;10.38;5.75;;;;;;;;;;5067755;28;20037;-76
2022/04/17 01:31:49;;;;;;;10.45;5.53;;;;;;;;;;5071092;28;20055;-75
2022/04/17 01:34:16;;;;;;;10.30;5.90;;;;;;;;;;5070015;28;20045;-74
2022/04/17 01:36:46;;;;;;;10.52;5.72;;;;;;;;;;5070196;28;20044;-75
2022/04/17 01:39:13;;;;;;;10.63;5.60;;;;;;;;;;5069427;28;20047;-74
2022/04/17 01:41:39;;;;;;;9.75;5.25;;;;;;;;;;5070223;28;20040;-76
2022/04/17 01:44:06;;;;;;;11.65;5.82;;;;;;;;;;5071088;28;20041;-75
2022/04/17 01:46:32;;;;;;;10.10;5.90;;;;;;;;;;5069714;28;20032;-74
2022/04/17 01:48:58;;;;;;;10.68;6.13;;;;;;;;;;5071233;28;20175;-75
2022/04/17 01:51:24;;;;;;;12.50;6.07;;;;;;;;;;5069470;28;20500;-75
2022/04/17 01:53:50;;;;;;;7.70;5.22;;;;;;;;;;5052919;28;20044;-76
2022/04/17 01:56:16;;;;;;;10.63;5.78;;;;;;;;;;5052728;28;20042;-77
2022/04/17 01:58:42;;;;;;;9.13;5.70;;;;;;;;;;5071442;28;20040;-77
2022/04/17 02:01:08;;;;;;;9.20;5.68;;;;;;;;;;5049686;28;20369;-74
2022/04/17 02:03:34;;;;;;;10.15;5.90;;;;;;;;;;5063099;28;20096;-76
2022/04/17 02:06:01;;;;;;;10.48;5.47;;;;;;;;;;5069875;28;20041;-75
2022/04/17 02:08:31;;;;;;;9.63;6.10;;;;;;;;;;5069017;28;20040;-74
2022/04/17 02:10:57;;;;;;;8.77;5.57;;;;;;;;;;5070261;28;20098;-76
2022/04/17 02:13:23;;;;;;;9.77;6.30;;;;;;;;;;5070110;28;20070;-73
2022/04/17 02:15:53;;;;;;;10.20;6.35;;;;;;;;;;5037021;28;20076;-79
2022/04/17 02:18:20;;;;;;;10.43;5.43;;;;;;;;;;5069752;28;20063;-77
2022/04/17 02:20:47;;;;;;;10.18;5.82;;;;;;;;;;5071720;28;20120;-80
2022/04/17 02:23:13;;;;;;;9.77;5.85;;;;;;;;;;5070113;28;20044;-74
2022/04/17 02:25:39;;;;;;;9.98;6.05;;;;;;;;;;5071843;28;20055;-73
2022/04/17 02:28:05;;;;;;;9.80;5.95;;;;;;;;;;5069779;28;20063;-73
2022/04/17 02:30:31;;;;;;;10.60;6.13;;;;;;;;;;5069660;28;20091;-76
2022/04/17 02:32:58;;;;;;;11.13;6.05;;;;;;;;;;5070034;28;20439;-77
2022/04/17 02:35:24;;;;;;;9.80;5.78;;;;;;;;;;5070202;28;20045;-75
2022/04/17 02:37:50;;;;;;;10.52;5.53;;;;;;;;;;5071109;28;20094;-73
2022/04/17 02:40:16;;;;;;;10.02;6.47;;;;;;;;;;5070477;28;20041;-73
2022/04/17 02:42:43;;;;;;;12.10;6.28;;;;;;;;;;5069177;28;20504;-73
2022/04/17 02:45:09;;;;;;;10.85;6.05;;;;;;;;;;5068445;28;20052;-75
2022/04/17 02:47:45;;;;;;;10.38;5.82;;;;;;;;;;5068456;28;20409;-76
2022/04/17 02:50:12;;;;;;;12.55;6.72;;;;;;;;;;5051968;28;20047;-77
2022/04/17 02:52:38;;;;;;;9.60;6.00;;;;;;;;;;5069647;28;20044;-76
2022/04/17 02:55:05;;;;;;;10.38;5.90;;;;;;;;;;5069779;28;20057;-76
2022/04/17 02:57:31;;;;;;;10.05;6.38;;;;;;;;;;5067922;28;20040;-76
2022/04/17 02:59:57;;;;;;;9.95;6.25;;;;;;;;;;5070290;28;20114;-76
2022/04/17 03:07:53;;;;;;;12.00;6.60;;;;;;;;;;5054733;28;20506;-77
2022/04/17 03:10:20;;;;;;;10.02;6.43;;;;;;;;;;5068140;28;20131;-76
2022/04/17 03:12:46;;;;;;;11.18;6.50;;;;;;;;;;5068575;28;20047;-76
2022/04/17 03:15:12;;;;;;;11.93;6.38;;;;;;;;;;5068224;28;20495;-76
2022/04/17 03:17:38;;;;;;;11.70;6.38;;;;;;;;;;5068175;28;20115;-78
2022/04/17 03:20:05;;;;;;;9.82;6.47;;;;;;;;;;5068627;28;20502;-77
2022/04/17 03:22:34;;;;;;;10.38;6.63;;;;;;;;;;5066851;28;20415;-78
2022/04/17 03:25:01;;;;;;;10.77;6.45;;;;;;;;;;5069687;28;20119;-77
2022/04/17 03:27:30;;;;;;;10.32;6.40;;;;;;;;;;5067609;28;20036;-78
2022/04/17 03:29:56;;;;;;;11.82;6.88;;;;;;;;;;5051537;28;20037;-78
2022/04/17 03:32:22;;;;;;;11.88;6.78;;;;;;;;;;5067506;28;20079;-76
2022/04/17 03:34:48;;;;;;;12.88;6.65;;;;;;;;;;5068200;28;20036;-76
2022/04/17 03:37:15;;;;;;;11.40;6.45;;;;;;;;;;5068024;28;20072;-76
2022/04/17 03:39:48;;;;;;;10.18;6.72;;;;;;;;;;5067667;28;20090;-76
2022/04/17 03:42:15;;;;;;;11.05;6.93;;;;;;;;;;5069606;28;20041;-76
2022/04/17 03:44:41;;;;;;;10.98;7.00;;;;;;;;;;5053869;28;20036;-76
2022/04/17 03:47:07;;;;;;;12.40;6.72;;;;;;;;;;5073060;28;20120;-76
2022/04/17 03:49:34;;;;;;;10.95;6.57;;;;;;;;;;5054919;28;20033;-76
2022/04/17 03:52:01;;;;;;;9.63;6.03;;;;;;;;;;5071681;28;20105;-78
2022/04/17 03:54:27;;;;;;;12.20;6.88;;;;;;;;;;5071662;28;20117;-78
2022/04/17 03:56:54;;;;;;;13.15;6.90;;;;;;;;;;5069263;28;20116;-78
2022/04/17 03:59:21;;;;;;;11.38;6.72;;;;;;;;;;5055089;28;20049;-78
2022/04/17 04:01:47;;;;;;;10.70;6.35;;;;;;;;;;5068262;28;20094;-78
2022/04/17 04:04:14;;;;;;;10.32;6.80;;;;;;;;;;5071085;28;20044;-78
2022/04/17 04:06:41;;;;;;;12.55;6.80;;;;;;;;;;5070328;28;20147;-78
2022/04/17 04:09:07;;;;;;;13.27;7.45;;;;;;;;;;5055053;28;20095;-78
2022/04/17 04:11:33;;;;;;;12.65;7.00;;;;;;;;;;5071431;28;20127;-78
2022/04/17 04:13:59;;;;;;;13.23;6.55;;;;;;;;;;5071180;28;20055;-78
2022/04/17 04:16:25;;;;;;;13.18;7.13;;;;;;;;;;5054195;28;20044;-78
2022/04/17 04:18:51;;;;;;;11.95;7.85;;;;;;;;;;5071132;28;20051;-78
2022/04/17 04:21:17;;;;;;;13.18;8.05;;;;;;;;;;5071100;28;20043;-78
2022/04/17 04:23:43;;;;;;;13.80;8.10;;;;;;;;;;5071657;28;20503;-78
2022/04/17 04:26:09;;;;;;;14.18;7.35;;;;;;;;;;5071641;28;20164;-78
2022/04/17 04:28:38;;;;;;;11.70;6.93;;;;;;;;;;5071183;28;20055;-78
2022/04/17 04:31:05;;;;;;;13.73;7.25;;;;;;;;;;5071472;28;20044;-78
2022/04/17 04:33:32;;;;;;;11.18;7.25;;;;;;;;;;5071840;28;20117;-78
2022/04/17 04:35:59;;;;;;;12.95;7.88;;;;;;;;;;5070991;28;20523;-78
2022/04/17 04:38:25;;;;;;;11.07;7.47;;;;;;;;;;5055261;28;20047;-76
2022/04/17 04:40:51;;;;;;;13.27;7.65;;;;;;;;;;5071230;28;20040;-78
2022/04/17 04:43:18;;;;;;;11.85;7.38;;;;;;;;;;5071894;28;20036;-78
2022/04/17 04:51:13;;;;;;;11.50;7.35;;;;;;;;;;5070443;28;20052;-78
2022/04/17 04:53:40;;;;;;;12.93;6.97;;;;;;;;;;5071338;28;20380;-78
2022/04/17 04:56:06;;;;;;;13.95;7.60;;;;;;;;;;5068999;28;20488;-76
2022/04/17 04:58:32;;;;;;;10.98;7.22;;;;;;;;;;5070796;28;20032;-75
2022/04/17 05:00:58;;;;;;;11.32;7.28;;;;;;;;;;5070475;28;20480;-79
2022/04/17 05:03:25;;;;;;;12.40;7.30;;;;;;;;;;5070707;28;20488;-79
2022/04/17 05:05:51;;;;;;;9.93;6.82;;;;;;;;;;5071913;28;20400;-78
2022/04/17 05:08:19;;;;;;;10.52;6.72;;;;;;;;;;5071686;28;20370;-78
2022/04/17 05:10:45;;;;;;;11.02;7.13;;;;;;;;;;5070674;28;20467;-79
2022/04/17 05:13:11;;;;;;;11.43;7.22;;;;;;;;;;5070429;28;20115;-79
2022/04/17 05:15:37;;;;;;;11.40;6.85;;;;;;;;;;5069737;28;20312;-79
2022/04/17 05:18:04;;;;;;;11.43;7.20;;;;;;;;;;5071489;28;20040;-78
2022/04/17 05:20:32;;;;;;;12.32;7.70;;;;;;;;;;5071529;28;20458;-79
2022/04/17 05:23:04;;;;;;;11.85;6.55;;;;;;;;;;5070330;28;20076;-79
2022/04/17 05:25:30;;;;;;;10.88;6.43;;;;;;;;;;5067974;28;20162;-79
2022/04/17 05:27:57;;;;;;;10.15;6.78;;;;;;;;;;5070197;28;20083;-79
2022/04/17 05:30:23;;;;;;;10.35;6.70;;;;;;;;;;5053228;28;20106;-79
2022/04/17 05:32:49;;;;;;;10.15;6.30;;;;;;;;;;5070143;28;20377;-79
2022/04/17 05:35:15;;;;;;;11.93;6.82;;;;;;;;;;5053303;28;20458;-79
2022/04/17 05:37:41;;;;;;;10.30;6.90;;;;;;;;;;5070056;28;20028;-78
2022/04/17 05:40:07;;;;;;;11.25;7.28;;;;;;;;;;5071039;28;20085;-78
2022/04/17 05:42:33;;;;;;;10.50;7.03;;;;;;;;;;5071060;28;20025;-78
2022/04/17 05:44:59;;;;;;;9.25;6.47;;;;;;;;;;5070248;28;20047;-77
2022/04/17 05:47:27;;;;;;;11.68;8.02;;;;;;;;;;5069676;28;20119;-79
2022/04/17 05:49:53;;;;;;;9.95;7.13;;;;;;;;;;5069292;28;20044;-76
2022/04/17 05:52:20;;;;;;;9.40;6.95;;;;;;;;;;5070298;28;20045;-79
2022/04/17 05:54:46;;;;;;;9.90;7.15;;;;;;;;;;5070949;28;20046;-76
2022/04/17 05:57:12;;;;;;;11.27;7.10;;;;;;;;;;5070882;28;20174;-76
2022/04/17 05:59:38;;;;;;;10.02;6.90;;;;;;;;;;5069157;28;20043;-77
2022/04/17 06:02:04;;;;;;;11.07;6.97;;;;;;;;;;5069550;28;20503;-76
2022/04/17 06:04:30;;;;;;;11.63;7.05;;;;;;;;;;5069221;28;20049;-77
2022/04/17 06:06:56;;;;;;;9.68;6.50;;;;;;;;;;5070373;28;20447;-76
2022/04/17 06:09:22;;;;;;;9.68;6.82;;;;;;;;;;5069434;28;20054;-77
2022/04/17 06:11:49;;;;;;;10.43;7.28;;;;;;;;;;5069796;28;20037;-77
2022/04/17 06:14:15;;;;;;;10.27;7.05;;;;;;;;;;5071498;28;20138;-75
2022/04/17 06:16:41;;;;;;;10.30;7.38;;;;;;;;;;5053247;28;20032;-76
2022/04/17 06:19:09;;;;;;;8.98;6.70;;;;;;;;;;5070999;28;20551;-77
2022/04/17 06:21:36;;;;;;;9.68;7.13;;;;;;;;;;5069241;28;20484;-77
2022/04/17 06:24:02;;;;;;;9.48;6.50;;;;;;;;;;5069660;28;20101;-75
2022/04/17 06:26:28;;;;;;;11.77;6.80;;;;;;;;;;5069017;28;20032;-75
2022/04/17 06:28:54;;;;;;;9.48;7.10;;;;;;;;;;5069843;28;20105;-77
2022/04/17 06:31:20;;;;;;;11.93;6.85;;;;;;;;;;5069609;28;20036;-76
2022/04/17 06:33:46;;;;;;;9.45;6.75;;;;;;;;;;5070077;28;20036;-78
2022/04/17 06:36:12;;;;;;;11.05;6.82;;;;;;;;;;5052912;28;20559;-77
2022/04/17 06:38:38;;;;;;;8.65;6.70;;;;;;;;;;5070343;28;20472;-74
2022/04/17 06:41:04;;;;;;;8.73;6.10;;;;;;;;;;5069409;28;20499;-77
2022/04/17 06:43:30;;;;;;;8.95;6.90;;;;;;;;;;5069871;28;20047;-76
2022/04/17 06:45:56;;;;;;;10.55;6.90;;;;;;;;;;5070141;28;20103;-75
2022/04/17 06:48:23;;;;;;;8.10;6.22;;;;;;;;;;5069757;28;20396;-74
2022/04/17 06:50:51;;;;;;;8.90;6.40;;;;;;;;;;5052975;28;20516;-74
2022/04/17 06:53:18;;;;;;;8.50;6.03;;;;;;;;;;5069156;28;20044;-72
2022/04/17 06:55:44;;;;;;;8.85;6.28;;;;;;;;;;5069032;28;20045;-74
2022/04/17 06:58:10;;;;;;;9.75;6.65;;;;;;;;;;5069739;28;20040;-76
2022/04/17 07:00:37;;;;;;;9.68;6.72;;;;;;;;;;5069215;28;20563;-77
2022/04/17 07:03:03;;;;;;;8.20;6.78;;;;;;;;;;5068986;28;20123;-77
2022/04/17 07:05:29;;;;;;;8.20;5.90;;;;;;;;;;5070205;28;20040;-73
2022/04/17 07:08:03;;;;;;;9.77;6.50;;;;;;;;;;5069181;28;20506;-77
2022/04/17 07:10:30;;;;;;;6.95;5.80;;;;;;;;;;5068219;28;20087;-77
2022/04/17 07:12:56;;;;;;;9.27;6.32;;;;;;;;;;5068621;28;20914;-77
2022/04/17 07:15:26;;;;;;;8.77;6.07;;;;;;;;;;5069399;28;20094;-77
2022/04/17 07:17:53;;;;;;;8.07;6.30;;;;;;;;;;5068309;28;20094;-81
2022/04/17 07:20:19;;;;;;;8.05;6.00;;;;;;;;;;5072534;28;20040;-79
2022/04/17 07:22:45;;;;;;;9.18;6.30;;;;;;;;;;5072818;28;20507;-78
2022/04/17 07:25:12;;;;;;;9.20;6.72;;;;;;;;;;5074064;28;20036;-80
2022/04/17 07:27:38;;;;;;;12.70;7.07;;;;;;;;;;5072573;28;20040;-79
2022/04/17 07:30:08;;;;;;;8.57;5.80;;;;;;;;;;5073454;28;20055;-78
2022/04/17 07:32:34;;;;;;;9.45;6.15;;;;;;;;;;5073439;28;20507;-78
2022/04/17 07:35:00;;;;;;;8.45;6.35;;;;;;;;;;5075257;28;20036;-82
2022/04/17 07:37:27;;;;;;;9.40;6.65;;;;;;;;;;5075025;28;20049;-77
2022/04/17 07:39:53;;;;;;;7.68;6.00;;;;;;;;;;5074072;28;20068;-77
2022/04/17 07:42:21;;;;;;;9.80;6.35;;;;;;;;;;5072295;28;20067;-77
2022/04/17 07:44:48;;;;;;;8.75;6.53;;;;;;;;;;5073303;28;20488;-71
2022/04/17 07:47:15;;;;;;;8.70;6.10;;;;;;;;;;5071884;28;20276;-71
2022/04/17 07:49:41;;;;;;;8.02;6.18;;;;;;;;;;5072769;28;20037;-72
2022/04/17 07:52:07;;;;;;;8.77;5.80;;;;;;;;;;5072511;28;20052;-73
2022/04/17 07:54:33;;;;;;;8.77;6.55;;;;;;;;;;5071871;28;20440;-75
2022/04/17 07:57:00;;;;;;;9.15;6.22;;;;;;;;;;5073574;28;20040;-72
2022/04/17 07:59:26;;;;;;;9.60;5.97;;;;;;;;;;5071776;28;20044;-73
2022/04/17 08:02:11;;;;;;;6.88;5.38;;;;;;;;;;5071656;28;20116;-72
2022/04/17 08:04:40;;;;;;;7.38;5.68;;;;;;;;;;5071840;28;20507;-75
2022/04/17 08:07:06;;;;;;;9.05;6.07;;;;;;;;;;5072287;28;20500;-73
2022/04/17 08:09:32;;;;;;;8.23;5.97;;;;;;;;;;5071968;28;20625;-76
2022/04/17 08:12:01;;;;;;;8.13;5.25;;;;;;;;;;5071719;28;20033;-73
2022/04/17 08:14:27;;;;;;;9.80;6.22;;;;;;;;;;5038343;28;20052;-72
2022/04/17 08:16:53;;;;;;;9.77;5.78;;;;;;;;;;5055120;28;20040;-76
2022/04/17 08:19:19;;;;;;;8.93;5.88;;;;;;;;;;5071214;28;20076;-74
2022/04/17 08:21:45;;;;;;;7.68;5.82;;;;;;;;;;5072644;28;20086;-72
2022/04/17 08:24:11;;;;;;;6.78;5.22;;;;;;;;;;5071756;28;20507;-72
2022/04/17 08:26:37;;;;;;;7.45;5.45;;;;;;;;;;5071722;28;20507;-75
2022/04/17 08:29:03;;;;;;;7.82;5.40;;;;;;;;;;5070977;28;20049;-74
2022/04/17 08:31:29;;;;;;;8.07;5.60;;;;;;;;;;5071004;28;20047;-74
2022/04/17 08:33:55;;;;;;;8.10;5.30;;;;;;;;;;5071180;28;20043;-72
2022/04/17 08:36:21;;;;;;;7.35;5.32;;;;;;;;;;5070591;28;20044;-76
2022/04/17 08:38:47;;;;;;;9.55;5.60;;;;;;;;;;5071164;28;20107;-73
2022/04/17 08:41:15;;;;;;;7.55;4.90;;;;;;;;;;5054241;28;20040;-73
2022/04/17 08:43:43;;;;;;;7.07;5.50;;;;;;;;;;5070695;28;20119;-71
2022/04/17 08:46:11;;;;;;;6.55;4.70;;;;;;;;;;5070903;28;20072;-72
2022/04/17 08:48:37;;;;;;;5.85;4.50;;;;;;;;;;5070853;28;20048;-72
2022/04/17 08:51:05;;;;;;;7.78;4.53;;;;;;;;;;5072041;28;20060;-72
2022/04/17 08:53:34;;;;;;;6.25;4.43;;;;;;;;;;5071859;28;20064;-77
2022/04/17 08:56:00;;;;;;;7.85;5.07;;;;;;;;;;5070669;28;20047;-79
2022/04/17 08:58:27;;;;;;;6.55;4.65;;;;;;;;;;5071600;28;20102;-80
2022/04/17 09:00:53;;;;;;;7.40;4.85;;;;;;;;;;5053896;28;20048;-81
2022/04/17 09:03:19;;;;;;;7.38;4.20;;;;;;;;;;5053911;28;20040;-75
2022/04/17 09:05:47;;;;;;;7.55;4.50;;;;;;;;;;5071693;28;20036;-80
2022/04/17 09:08:13;;;;;;;7.43;4.30;;;;;;;;;;5070129;28;20098;-76
2022/04/17 09:10:39;;;;;;;6.05;4.25;;;;;;;;;;5070847;28;20089;-76
2022/04/17 09:13:06;;;;;;;6.07;4.35;;;;;;;;;;5071426;28;20043;-76
2022/04/17 09:15:33;;;;;;;6.97;4.25;;;;;;;;;;5071335;28;20045;-72
2022/04/17 09:17:59;;;;;;;6.53;4.13;;;;;;;;;;5070409;28;20048;-72
2022/04/17 09:20:26;;;;;;;7.82;4.63;;;;;;;;;;5071239;28;20083;-76
2022/04/17 09:22:53;;;;;;;6.25;4.20;;;;;;;;;;5070301;28;20048;-71
2022/04/17 09:25:22;;;;;;;6.90;4.60;;;;;;;;;;5071350;28;20044;-72
2022/04/17 09:28:02;;;;;;;5.57;4.50;;;;;;;;;;5071703;28;20122;-74
2022/04/17 09:30:32;;;;;;;6.28;4.50;;;;;;;;;;5071261;28;20048;-73
2022/04/17 09:32:59;;;;;;;6.30;4.75;;;;;;;;;;5070247;28;20455;-74
2022/04/17 09:35:25;;;;;;;7.53;4.50;;;;;;;;;;5053081;28;20480;-75
2022/04/17 09:37:55;;;;;;;9.38;4.65;;;;;;;;;;5070675;28;20500;-75
2022/04/17 09:40:23;;;;;;;5.57;4.40;;;;;;;;;;5071564;28;20044;-75
2022/04/17 09:42:49;;;;;;;6.95;4.57;;;;;;;;;;5069412;28;20033;-75
2022/04/17 09:45:15;;;;;;;7.28;4.65;;;;;;;;;;5070316;28;20492;-72
2022/04/17 09:47:55;;;;;;;5.97;4.20;;;;;;;;;;5053141;28;20101;-72
2022/04/17 09:50:30;;;;;;;6.43;4.13;;;;;;;;;;5069803;28;20091;-73
2022/04/17 09:52:58;;;;;;;5.38;4.18;;;;;;;;;;5068962;28;20052;-76
2022/04/17 09:55:28;;;;;;;7.22;4.90;;;;;;;;;;5070722;28;20123;-72
2022/04/17 09:57:57;;;;;;;5.30;4.50;;;;;;;;;;5050762;28;20507;-72
2022/04/17 10:00:24;;;;;;;6.22;4.68;;;;;;;;;;5069308;28;20123;-73
2022/04/17 10:02:50;;;;;;;7.32;4.30;;;;;;;;;;5069010;28;20089;-73
2022/04/17 10:05:17;;;;;;;7.97;4.80;;;;;;;;;;5053377;28;20036;-73
2022/04/17 10:07:47;;;;;;;6.97;3.92;;;;;;;;;;5070351;28;20032;-73
2022/04/17 10:10:14;;;;;;;6.95;4.60;;;;;;;;;;5069524;28;20047;-73
2022/04/17 10:12:41;;;;;;;6.38;4.10;;;;;;;;;;5070714;28;20036;-71
2022/04/17 10:15:07;;;;;;;5.28;3.92;;;;;;;;;;5052856;28;20042;-71
2022/04/17 10:17:42;;;;;;;6.85;4.05;;;;;;;;;;5070630;28;20039;-72
2022/04/17 10:20:13;;;;;;;10.18;4.85;;;;;;;;;;5069516;28;20432;-72
2022/04/17 10:22:40;;;;;;;6.90;4.05;;;;;;;;;;5069242;28;20048;-72
2022/04/17 10:25:10;;;;;;;5.53;4.18;;;;;;;;;;5068698;28;20041;-73
2022/04/17 10:27:36;;;;;;;6.13;3.85;;;;;;;;;;5068450;28;20090;-72
2022/04/17 10:30:07;;;;;;;5.40;3.95;;;;;;;;;;5068798;28;20037;-74
2022/04/17 10:32:33;;;;;;;6.38;4.00;;;;;;;;;;5069069;28;20131;-75
2022/04/17 10:35:06;;;;;;;5.85;3.78;;;;;;;;;;5070350;28;20040;-72
2022/04/17 10:37:54;;;;;;;5.75;4.05;;;;;;;;;;5066830;28;20399;-72
2022/04/17 10:40:20;;;;;;;6.35;4.30;;;;;;;;;;5069301;28;20484;-75
2022/04/17 10:42:55;;;;;;;6.13;4.38;;;;;;;;;;5069140;28;20054;-73
2022/04/17 10:45:22;;;;;;;6.97;4.43;;;;;;;;;;5070221;28;20048;-76
2022/04/17 10:48:08;;;;;;;5.70;3.97;;;;;;;;;;5070527;28;20040;-71
2022/04/17 10:50:34;;;;;;;;;;;;;;;;;;5070140;28;20044;-73
2022/04/17 10:53:20;;;;;;;7.47;4.30;;;;;;;;;;5067403;28;19924;-73
2022/04/17 10:56:05;;;;;;;6.40;4.70;;;;;;;;;;5069518;28;20040;-72
2022/04/17 10:58:40;;;;;;;7.28;4.50;;;;;;;;;;5067920;28;20075;-71
2022/04/17 11:01:06;;;;;;;6.45;3.90;;;;;;;;;;5069854;28;20111;-72
2022/04/17 11:03:36;;;;;;;6.72;4.45;;;;;;;;;;5069806;28;20117;-72
2022/04/17 11:06:22;;;;;;;5.00;3.50;;;;;;;;;;5068711;28;20048;-74
2022/04/17 11:08:51;;;;;;;6.47;4.35;;;;;;;;;;5068460;28;20040;-75
2022/04/17 11:11:17;;;;;;;5.60;4.30;;;;;;;;;;5067856;28;20436;-75
2022/04/17 11:14:02;;;;;;;6.10;4.13;;;;;;;;;;5069542;28;20123;-71
2022/04/17 11:16:28;;;;;;;5.72;4.28;;;;;;;;;;5051669;28;20048;-72
2022/04/17 11:18:56;;;;;;;6.70;4.60;;;;;;;;;;5068686;28;20041;-73
2022/04/17 11:21:36;;;;;;;6.25;4.07;;;;;;;;;;5068503;28;20079;-73
2022/04/17 11:24:03;;;;;;;8.30;4.38;;;;;;;;;;5068285;28;20124;-75
2022/04/17 11:26:58;;;;;;;5.50;4.20;;;;;;;;;;5068713;28;20040;-72
2022/04/17 11:29:34;;;;;;;5.83;4.07;;;;;;;;;;5053343;28;20049;-72
2022/04/17 11:32:00;;;;;;;6.45;4.07;;;;;;;;;;5068494;28;20133;-71
2022/04/17 11:34:26;;;;;;;6.03;4.25;;;;;;;;;;5065161;28;20052;-73
2022/04/17 11:36:52;;;;;;;7.13;4.57;;;;;;;;;;5069176;28;20498;-74
2022/04/17 11:39:27;;;;;;;6.30;4.00;;;;;;;;;;5068351;28;20392;-74
2022/04/17 11:41:53;;;;;;;6.38;4.30;;;;;;;;;;5068615;28;20534;-72
2022/04/17 11:44:19;;;;;;;7.82;4.32;;;;;;;;;;5068255;28;20515;-71
2022/04/17 11:46:45;;;;;;;6.03;4.30;;;;;;;;;;5068477;28;20059;-81
2022/04/17 11:49:11;;;;;;;5.93;4.53;;;;;;;;;;5068101;28;20036;-77
2022/04/17 11:51:44;;;;;;;6.88;4.60;;;;;;;;;;5068941;28;20075;-80
2022/04/17 11:54:28;;;;;;;8.98;4.45;;;;;;;;;;5051006;28;20037;-79
2022/04/17 11:56:55;;;;;;;5.82;4.70;;;;;;;;;;5068153;28;20045;-78
2022/04/17 11:59:21;;;;;;;6.15;4.30;;;;;;;;;;5069231;28;20047;-71
2022/04/17 12:02:06;;;;;;;6.65;4.05;;;;;;;;;;5068594;28;20040;-72
2022/04/17 12:04:33;;;;;;;6.57;4.22;;;;;;;;;;5068499;28;20135;-72
2022/04/17 12:06:59;;;;;;;7.30;4.50;;;;;;;;;;5071686;28;20182;-71
2022/04/17 12:09:26;;;;;;;5.82;4.45;;;;;;;;;;5068742;28;20101;-79
2022/04/17 12:11:52;;;;;;;7.28;4.30;;;;;;;;;;5071630;28;20044;-75
2022/04/17 12:14:31;;;;;;;5.45;3.90;;;;;;;;;;5072389;28;20137;-81
2022/04/17 12:16:57;;;;;;;7.30;4.45;;;;;;;;;;5071662;28;20067;-78
2022/04/17 12:19:26;;;;;;;7.70;4.40;;;;;;;;;;5071368;28;20504;-79
2022/04/17 12:21:53;;;;;;;8.35;4.60;;;;;;;;;;5071369;28;20074;-80
2022/04/17 12:24:22;;;;;;;6.88;4.60;;;;;;;;;;5070951;28;20063;-76
2022/04/17 12:26:49;;;;;;;6.78;4.68;;;;;;;;;;5071271;28;20051;-76
2022/04/17 12:29:15;;;;;;;6.53;4.22;;;;;;;;;;5071248;28;20039;-77
2022/04/17 12:31:41;;;;;;;6.53;4.65;;;;;;;;;;5070994;28;20088;-73
2022/04/17 12:34:12;;;;;;;8.60;4.15;;;;;;;;;;5072333;28;20037;-71
2022/04/17 12:36:42;;;;;;;7.55;4.22;;;;;;;;;;5071005;28;20037;-71
2022/04/17 12:39:08;;;;;;;10.00;4.68;;;;;;;;;;5072353;28;20115;-76
2022/04/17 12:41:54;;;;;;;6.63;3.83;;;;;;;;;;5071888;28;20098;-79
2022/04/17 12:44:32;;;;;;;6.68;4.05;;;;;;;;;;5070824;28;20040;-76
2022/04/17 12:47:15;;;;;;;7.22;3.95;;;;;;;;;;5071277;28;20045;-76
2022/04/17 12:49:41;;;;;;;5.53;3.42;;;;;;;;;;5070997;28;20036;-77
2022/04/17 12:52:07;;;;;;;5.47;3.47;;;;;;;;;;5070411;28;20496;-81
2022/04/17 12:54:34;;;;;;;5.05;3.40;;;;;;;;;;5071154;28;20500;-77
2022/04/17 12:57:01;;;;;;;6.13;3.80;;;;;;;;;;5054108;28;20076;-80
2022/04/17 12:59:28;;;;;;;7.55;3.90;;;;;;;;;;5037933;28;20041;-82
2022/04/17 13:01:54;;;;;;;5.78;3.75;;;;;;;;;;5071824;28;20052;-81
2022/04/17 13:04:20;;;;;;;6.32;3.90;;;;;;;;;;5070731;28;20115;-79
2022/04/17 13:06:48;;;;;;;5.55;4.07;;;;;;;;;;5053710;28;20039;-77
2022/04/17 13:09:18;;;;;;;7.88;3.95;;;;;;;;;;5070346;28;20480;-77
2022/04/17 13:11:47;;;;;;;5.75;3.58;;;;;;;;;;5069577;28;20047;-76
2022/04/17 13:14:13;;;;;;;4.45;3.15;;;;;;;;;;5071305;28;20078;-78
2022/04/17 13:16:52;;;;;;;6.78;3.60;;;;;;;;;;5069418;28;20044;-80
2022/04/17 13:19:19;;;;;;;4.07;2.95;;;;;;;;;;5070530;28;20025;-73
2022/04/17 13:21:46;;;;;;;5.10;3.45;;;;;;;;;;5053493;28;20090;-75
2022/04/17 13:24:15;;;;;;;6.30;3.90;;;;;;;;;;5070161;28;20075;-74
2022/04/17 13:26:42;;;;;;;6.53;3.35;;;;;;;;;;5069864;28;20040;-72
2022/04/17 13:29:08;;;;;;;8.18;3.92;;;;;;;;;;5070349;28;20086;-75
2022/04/17 13:31:35;;;;;;;5.22;3.55;;;;;;;;;;5070187;28;20064;-72
2022/04/17 13:34:02;;;;;;;4.90;3.75;;;;;;;;;;5070675;28;20435;-74
2022/04/17 13:36:28;;;;;;;5.97;3.70;;;;;;;;;;5071264;28;20495;-71
2022/04/17 13:38:54;;;;;;;6.22;3.78;;;;;;;;;;5071523;28;20039;-72
2022/04/17 13:41:20;;;;;;;7.32;4.00;;;;;;;;;;5053171;28;20124;-73
2022/04/17 13:43:46;;;;;;;6.20;3.80;;;;;;;;;;5070634;28;20036;-74
2022/04/17 13:46:12;;;;;;;6.35;4.05;;;;;;;;;;5053110;28;20094;-74
2022/04/17 13:48:38;;;;;;;4.38;3.17;;;;;;;;;;5052920;28;20045;-73
2022/04/17 13:51:08;;;;;;;4.70;3.20;;;;;;;;;;5069687;28;20060;-72
2022/04/17 13:53:34;;;;;;;8.07;3.55;;;;;;;;;;5052926;28;20045;-71
2022/04/17 13:56:00;;;;;;;6.95;4.10;;;;;;;;;;5070817;28;20072;-72
2022/04/17 13:58:29;;;;;;;6.03;3.60;;;;;;;;;;5069786;28;20052;-73
2022/04/17 14:00:56;;;;;;;7.00;3.75;;;;;;;;;;5069858;28;20125;-74
2022/04/17 14:03:22;;;;;;;6.75;3.70;;;;;;;;;;5070110;28;20048;-74
2022/04/17 14:05:48;;;;;;;5.00;3.05;;;;;;;;;;5069624;28;20052;-74
2022/04/17 14:08:15;;;;;;;8.10;3.40;;;;;;;;;;5053037;28;20041;-73
2022/04/17 14:10:42;;;;;;;5.13;3.20;;;;;;;;;;5070681;28;20043;-74
2022/04/17 14:13:09;;;;;;;4.90;3.40;;;;;;;;;;5052786;28;20052;-72
2022/04/17 14:15:35;;;;;;;6.00;3.58;;;;;;;;;;5052488;28;20041;-74
2022/04/17 14:18:01;;;;;;;4.90;3.55;;;;;;;;;;5069806;28;20412;-72
2022/04/17 14:20:28;;;;;;;6.20;3.67;;;;;;;;;;5069270;28;20151;-72
2022/04/17 14:22:55;;;;;;;5.95;3.03;;;;;;;;;;5069727;28;20373;-73
2022/04/17 14:25:21;;;;;;;6.18;3.65;;;;;;;;;;5069612;28;20376;-72
2022/04/17 14:27:47;;;;;;;6.78;3.83;;;;;;;;;;5052242;28;20101;-74
2022/04/17 14:30:13;;;;;;;5.45;3.90;;;;;;;;;;5070628;28;20080;-75
2022/04/17 14:32:39;;;;;;;7.57;3.75;;;;;;;;;;5068973;28;20052;-72
2022/04/17 14:35:05;;;;;;;5.50;3.53;;;;;;;;;;5070399;28;20037;-72
2022/04/17 14:37:32;;;;;;;5.60;3.80;;;;;;;;;;5052171;28;20087;-72
2022/04/17 14:39:58;;;;;;;5.20;3.22;;;;;;;;;;5070339;28;20085;-73
2022/04/17 14:42:24;;;;;;;9.20;3.50;;;;;;;;;;5070369;28;20048;-74
2022/04/17 14:44:50;;;;;;;6.60;3.47;;;;;;;;;;5052858;28;20080;-73
2022/04/17 14:47:16;;;;;;;7.80;3.50;;;;;;;;;;5069201;28;20487;-73
2022/04/17 14:49:42;;;;;;;5.00;3.08;;;;;;;;;;5052340;28;20491;-80
2022/04/17 14:52:10;;;;;;;6.90;3.30;;;;;;;;;;5068899;28;20377;-80
2022/04/17 14:54:37;;;;;;;5.95;3.30;;;;;;;;;;5068354;28;20106;-81